Time;durP1;ratioP1;P1;durP2;ratioP2;P2;SDS_P1;SDS_P2;PMS_P1;PMS_P2;Temp;Humidity;BMP_temperature;BMP_pressure;BME280_temperature;BME280_humidity;BME280_pressure;Samples;Min_cycle;Max_cycle;Signal;HPM_P1;HPM_P2
2022/11/04 00:02:06;;;;;;;11.85;3.50;;;;;;;5.86;89.55;99905.63;5053130;28;20033;-43
2022/11/04 00:04:33;;;;;;;12.52;4.25;;;;;;;5.86;89.34;99903.69;5050793;28;20419;-42
2022/11/04 00:07:00;;;;;;;9.40;4.20;;;;;;;5.83;89.38;99898.81;5040492;28;20037;-41
2022/11/04 00:09:29;;;;;;;8.32;4.65;;;;;;;5.83;89.55;99903.50;5045272;28;20474;-42
2022/11/04 00:14:42;;;;;;;11.93;3.70;;;;;;;5.80;89.79;99906.94;5044460;28;20417;-42
2022/11/04 00:17:18;;;;;;;9.50;3.78;;;;;;;5.79;89.79;99911.63;5050090;28;20044;-44
2022/11/04 00:30:55;;;;;;;13.15;4.70;;;;;;;5.69;89.82;99938.66;5039448;28;20060;-47
2022/11/04 00:33:25;;;;;;;13.77;4.75;;;;;;;5.67;89.79;99960.16;5048382;28;20053;-42
2022/11/04 00:35:55;;;;;;;13.05;4.50;;;;;;;5.65;90.11;99965.16;5050018;28;20045;-41
2022/11/04 00:38:23;;;;;;;12.45;4.72;;;;;;;5.66;90.20;99969.53;5047735;28;20048;-42
2022/11/04 00:40:49;;;;;;;10.57;4.20;;;;;;;5.64;90.17;99980.06;5046925;28;20099;-42
2022/11/04 00:43:16;;;;;;;11.77;4.60;;;;;;;5.62;90.10;99987.78;5046418;28;20068;-41
2022/11/04 00:45:43;;;;;;;18.05;4.10;;;;;;;5.63;90.41;99983.94;5025579;28;20041;-42
2022/11/04 00:48:10;;;;;;;13.00;4.38;;;;;;;5.61;90.52;99981.53;5047605;28;20406;-46
2022/11/04 00:50:38;;;;;;;14.25;5.65;;;;;;;5.61;90.32;99988.94;5046412;28;20495;-42
2022/11/04 00:53:05;;;;;;;8.18;3.75;;;;;;;5.60;90.33;99979.09;5047842;28;20049;-43
2022/11/04 00:55:32;;;;;;;17.25;4.32;;;;;;;5.60;90.43;99982.66;5047456;28;20156;-41
2022/11/04 00:57:59;;;;;;;13.30;3.70;;;;;;;5.57;90.50;99982.50;5047330;28;20053;-46
2022/11/04 01:00:26;;;;;;;8.80;3.95;;;;;;;5.57;90.55;99996.22;5045727;28;20041;-42
2022/11/04 01:02:52;;;;;;;12.80;4.55;;;;;;;5.56;90.60;99994.63;5048248;28;20044;-43
2022/11/04 01:05:19;;;;;;;10.68;4.80;;;;;;;5.55;90.69;99996.56;5042243;28;20041;-44
2022/11/04 01:07:46;;;;;;;13.63;4.40;;;;;;;5.53;90.83;100005.13;5039662;28;20506;-42
2022/11/04 01:10:12;;;;;;;9.27;4.50;;;;;;;5.51;91.00;100012.06;5054878;28;20037;-49
2022/11/04 01:12:39;;;;;;;10.93;3.40;;;;;;;5.50;90.96;100029.69;5049262;28;20056;-42
2022/11/04 01:15:06;;;;;;;16.83;4.63;;;;;;;5.49;90.91;100033.56;5030856;28;20048;-42
2022/11/04 01:17:32;;;;;;;11.05;4.50;;;;;;;5.48;90.81;100043.72;5031726;28;20545;-42
2022/11/04 01:19:59;;;;;;;14.75;5.50;;;;;;;5.49;90.80;100048.09;5048545;28;20462;-45
2022/11/04 01:22:26;;;;;;;8.00;4.03;;;;;;;5.49;91.07;100053.59;5048379;28;20059;-42
2022/11/04 01:24:53;;;;;;;9.02;4.10;;;;;;;5.50;91.02;100051.66;5049527;28;20099;-42
2022/11/04 01:27:19;;;;;;;16.40;4.18;;;;;;;5.47;91.04;100058.59;5055679;28;20045;-41
2022/11/04 01:29:46;;;;;;;10.98;4.13;;;;;;;5.46;91.30;100067.97;5047014;28;20056;-41
2022/11/04 01:32:12;;;;;;;8.52;3.25;;;;;;;5.45;91.41;100071.06;5047581;28;20067;-43
2022/11/04 01:34:39;;;;;;;12.13;4.82;;;;;;;5.45;91.14;100082.81;5049201;28;20190;-42
2022/11/04 01:37:09;;;;;;;14.25;4.32;;;;;;;5.45;91.30;100082.81;5045399;28;20037;-42
2022/11/04 01:39:36;;;;;;;16.40;3.83;;;;;;;5.44;91.63;100097.69;5045093;28;20041;-42
2022/11/04 01:42:02;;;;;;;12.38;4.10;;;;;;;5.44;91.60;100113.34;5042731;28;20045;-42
2022/11/04 01:44:40;;;;;;;8.43;3.27;;;;;;;5.41;91.48;100105.75;5041973;28;20621;-46
2022/11/04 01:47:39;;;;;;;12.40;3.88;;;;;;;5.40;91.55;100115.16;5045094;28;20367;-41
2022/11/04 01:50:12;;;;;;;13.23;4.03;;;;;;;5.38;91.47;100126.44;5037992;28;20037;-42
2022/11/04 01:52:49;;;;;;;12.68;4.15;;;;;;;5.38;91.63;100134.66;5026519;28;20041;-42
2022/11/04 01:55:22;;;;;;;9.07;3.72;;;;;;;5.38;91.53;100137.41;5041600;28;20047;-43
2022/11/04 01:57:52;;;;;;;7.72;4.18;;;;;;;5.35;91.56;100137.25;5045613;28;20067;-42
2022/11/04 02:00:19;;;;;;;17.35;3.95;;;;;;;5.33;91.90;100140.34;5046745;28;20106;-42
2022/11/04 02:03:19;;;;;;;8.68;4.13;;;;;;;5.33;92.20;100137.59;5029248;28;20052;-41
2022/11/04 02:05:47;;;;;;;12.20;4.15;;;;;;;5.35;91.55;100143.56;5030366;28;20065;-43
2022/11/04 02:08:15;;;;;;;10.43;4.25;;;;;;;5.34;91.75;100155.69;5039602;28;20048;-46
2022/11/04 02:10:50;;;;;;;11.32;5.43;;;;;;;5.29;91.95;100172.31;5044630;28;20050;-42
2022/11/04 02:13:17;;;;;;;14.63;5.30;;;;;;;5.26;91.86;100183.94;5043460;28;20055;-42
2022/11/04 02:16:05;;;;;;;9.13;4.60;;;;;;;5.24;92.14;100188.13;5045427;28;20040;-42
2022/11/04 02:18:34;;;;;;;13.32;5.25;;;;;;;5.23;92.17;100189.25;5042275;28;20045;-41
2022/11/04 02:21:15;;;;;;;20.58;5.10;;;;;;;5.20;92.43;100193.47;5048633;28;20056;-43
2022/11/04 02:23:47;;;;;;;13.55;5.13;;;;;;;5.19;92.21;100199.28;5045802;28;20053;-42
2022/11/04 02:26:23;;;;;;;;;;;;;;;5.19;92.43;100205.56;5048987;28;20045;-42
2022/11/04 02:29:17;;;;;;;12.93;4.97;;;;;;;5.15;92.37;100226.53;5048422;28;19947;-41
2022/11/04 02:32:02;;;;;;;16.95;6.78;;;;;;;5.12;92.22;100227.19;5047782;28;20368;-42
2022/11/04 02:34:37;;;;;;;17.65;7.22;;;;;;;5.08;92.50;100220.75;5041763;28;20048;-43
2022/11/04 02:37:19;;;;;;;17.95;5.78;;;;;;;5.03;92.25;100223.63;5043400;28;20529;-43
2022/11/04 02:39:54;;;;;;;15.15;5.35;;;;;;;4.98;92.26;100226.50;5048609;28;20506;-42
2022/11/04 02:42:48;;;;;;;10.90;4.85;;;;;;;4.96;92.67;100234.25;5048196;28;20045;-41
2022/11/04 02:45:32;;;;;;;14.20;5.85;;;;;;;4.90;92.38;100225.38;5027294;28;20499;-47
2022/11/04 02:48:10;;;;;;;11.77;5.75;;;;;;;4.83;92.47;100229.72;5048531;28;20037;-42
2022/11/04 02:50:46;;;;;;;21.73;5.90;;;;;;;4.80;92.91;100231.16;5045718;28;20052;-43
2022/11/04 02:53:27;;;;;;;12.60;4.75;;;;;;;4.77;92.91;100241.97;5045773;28;20072;-41
2022/11/04 02:55:57;;;;;;;13.05;5.30;;;;;;;4.76;92.88;100234.88;5034714;28;20394;-42
2022/11/04 02:58:40;;;;;;;15.73;6.38;;;;;;;4.71;92.83;100254.22;5046132;28;20446;-41
2022/11/04 03:01:10;;;;;;;10.13;4.43;;;;;;;4.67;92.98;100270.50;5065974;22;20054;-41
2022/11/04 03:03:42;;;;;;;10.45;5.35;;;;;;;4.66;92.93;100263.38;5026368;28;20450;-41
2022/11/04 03:06:13;;;;;;;9.05;5.10;;;;;;;4.64;92.97;100276.59;5025351;28;20041;-45
2022/11/04 03:08:45;;;;;;;15.77;5.45;;;;;;;4.64;93.31;100281.28;5026376;28;20666;-44
2022/11/04 03:11:16;;;;;;;;;;;;;;;4.64;93.33;100287.56;5025174;28;20045;-41
2022/11/04 03:13:48;;;;;;;9.48;4.57;;;;;;;4.64;92.91;100297.72;5029997;28;19929;-44
2022/11/04 03:16:23;;;;;;;5.25;3.63;;;;;;;4.62;93.15;100294.50;5028837;28;20053;-41
2022/11/04 03:19:00;;;;;;;11.73;4.10;;;;;;;4.61;93.24;100284.66;5024942;28;20495;-41
2022/11/04 03:21:32;;;;;;;12.52;4.82;;;;;;;4.61;92.94;100295.59;5030833;28;20463;-42
2022/11/04 03:24:00;;;;;;;13.60;3.88;;;;;;;4.59;93.11;100295.94;5030943;28;20042;-41
2022/11/04 03:26:45;;;;;;;9.90;3.83;;;;;;;4.58;93.16;100296.28;5032293;28;20402;-41
2022/11/04 03:29:26;;;;;;;11.45;4.03;;;;;;;4.58;93.25;100299.00;5026501;28;20056;-47
2022/11/04 03:32:02;;;;;;;10.07;4.38;;;;;;;4.57;93.27;100308.34;5029527;28;20052;-41
2022/11/04 03:34:29;;;;;;;5.20;3.70;;;;;;;4.55;93.08;100305.13;5031989;28;20514;-41
2022/11/04 03:36:56;;;;;;;9.45;3.92;;;;;;;4.52;93.58;100303.00;5030493;28;20049;-41
2022/11/04 03:39:24;;;;;;;10.73;4.85;;;;;;;4.48;93.50;100305.56;5029431;28;20969;-42
2022/11/04 03:41:55;;;;;;;11.65;4.10;;;;;;;4.47;93.53;100308.63;5024984;28;20092;-41
2022/11/04 03:44:22;;;;;;;13.48;4.47;;;;;;;4.49;93.56;100312.66;5033871;28;20074;-41
2022/11/04 03:46:52;;;;;;;8.82;3.78;;;;;;;4.47;93.51;100305.88;5030225;28;20045;-42
2022/11/04 03:49:21;;;;;;;8.05;4.03;;;;;;;4.47;93.56;100316.84;5029457;28;20041;-42
2022/11/04 03:51:49;;;;;;;12.00;4.20;;;;;;;4.47;93.47;100319.59;5029043;28;20054;-41
2022/11/04 03:54:17;;;;;;;8.70;3.33;;;;;;;4.45;93.88;100316.38;5030212;28;20466;-41
2022/11/04 03:57:04;;;;;;;9.10;3.50;;;;;;;4.45;93.75;100321.84;5028451;28;20038;-41
2022/11/04 04:00:01;;;;;;;9.32;3.58;;;;;;;4.42;93.96;100330.69;5031348;28;20060;-41
2022/11/04 04:02:58;;;;;;;7.28;2.92;;;;;;;4.41;94.13;100337.28;5028047;28;20392;-41
2022/11/04 04:05:29;;;;;;;8.07;3.13;;;;;;;4.38;94.03;100348.88;5022158;28;20081;-42
2022/11/04 04:08:24;;;;;;;5.82;3.75;;;;;;;4.37;94.01;100356.28;5021350;28;20093;-41
2022/11/04 04:10:51;;;;;;;12.13;4.15;;;;;;;4.37;94.17;100363.72;5017601;28;20494;-41
2022/11/04 04:13:17;;;;;;;8.07;3.53;;;;;;;4.35;93.92;100369.50;5027585;28;20034;-41
2022/11/04 04:15:57;;;;;;;10.10;3.50;;;;;;;4.33;93.87;100369.00;5029340;28;20042;-41
2022/11/04 04:18:41;;;;;;;8.02;4.03;;;;;;;4.31;94.11;100382.22;5024173;28;20475;-41
2022/11/04 04:21:13;;;;;;;8.80;3.67;;;;;;;4.26;94.37;100385.88;5028418;28;20063;-42
2022/11/04 04:29:17;;;;;;;5.10;2.70;;;;;;;4.21;94.58;100383.25;5021249;28;20049;-41
2022/11/04 04:31:50;;;;;;;9.30;2.92;;;;;;;4.21;94.27;100394.22;5027041;28;20045;-41
2022/11/04 04:34:25;;;;;;;3.40;2.63;;;;;;;4.20;94.63;100409.06;5022286;28;20045;-47
2022/11/04 04:37:10;;;;;;;8.13;2.90;;;;;;;4.19;94.65;100421.13;5028762;28;20049;-41
2022/11/04 04:45:41;;;;;;;9.18;2.75;;;;;;;4.17;94.71;100437.06;5028123;28;20438;-40
2022/11/04 04:48:11;;;;;;;6.57;2.70;;;;;;;4.17;94.85;100445.28;5029989;28;20049;-41
2022/11/04 04:50:50;;;;;;;8.75;3.03;;;;;;;4.16;94.85;100453.81;5034753;28;20049;-41
2022/11/04 04:53:16;;;;;;;7.57;2.65;;;;;;;4.17;94.88;100447.22;5027449;28;20041;-47
2022/11/04 04:55:43;;;;;;;4.95;2.70;;;;;;;4.15;94.75;100450.28;5030243;28;20398;-41
2022/11/04 04:58:10;;;;;;;8.45;3.08;;;;;;;4.13;95.13;100446.22;5030245;28;20494;-41
2022/11/04 05:00:36;;;;;;;7.30;3.58;;;;;;;4.10;94.98;100450.38;5022082;28;21924;-42
2022/11/04 05:03:03;;;;;;;9.65;3.00;;;;;;;4.09;95.12;100445.22;5029478;28;20086;-41
2022/11/04 05:05:29;;;;;;;11.65;3.92;;;;;;;4.08;95.26;100462.75;5029711;28;20041;-43
2022/11/04 05:08:04;;;;;;;7.80;3.40;;;;;;;4.06;95.19;100465.81;5028788;28;20037;-41
2022/11/04 05:10:30;;;;;;;8.23;3.38;;;;;;;4.05;95.12;100472.41;5023736;28;20446;-41
2022/11/04 05:15:44;;;;;;;7.70;3.90;;;;;;;3.99;95.20;100490.09;5023719;28;20084;-42
2022/11/04 05:18:12;;;;;;;6.57;3.63;;;;;;;3.99;95.43;100492.81;5011842;28;20159;-41
2022/11/04 05:20:39;;;;;;;6.85;3.53;;;;;;;3.97;95.63;100497.78;5028131;28;20091;-41
2022/11/04 05:23:06;;;;;;;6.88;3.80;;;;;;;3.95;95.27;100500.03;5027458;28;20053;-41
2022/11/04 05:25:33;;;;;;;10.32;3.65;;;;;;;3.94;95.49;100492.13;5033344;28;20045;-41
2022/11/04 05:28:01;;;;;;;8.13;3.13;;;;;;;3.95;95.46;100493.72;5028264;28;20136;-42
2022/11/04 05:30:28;;;;;;;7.78;3.40;;;;;;;3.95;95.50;100510.97;5023870;28;20368;-47
2022/11/04 05:32:55;;;;;;;9.25;3.42;;;;;;;3.92;95.63;100508.84;5028409;28;20402;-45
2022/11/04 05:35:29;;;;;;;4.85;4.03;;;;;;;3.91;95.78;100520.94;5028629;28;20124;-41
2022/11/04 05:37:56;;;;;;;8.35;3.75;;;;;;;3.88;96.02;100518.81;5026808;28;20042;-41
2022/11/04 05:40:23;;;;;;;8.70;3.78;;;;;;;3.85;95.86;100516.69;5026828;28;20136;-40
2022/11/04 05:42:50;;;;;;;6.82;3.33;;;;;;;3.86;95.97;100518.31;5021551;28;20038;-41
2022/11/04 05:45:16;;;;;;;6.00;3.15;;;;;;;3.84;95.87;100528.75;5024186;28;20045;-41
2022/11/04 05:47:44;;;;;;;5.28;3.38;;;;;;;3.84;95.97;100536.94;5027536;28;20041;-41
2022/11/04 05:50:10;;;;;;;5.63;3.40;;;;;;;3.83;96.16;100540.81;5027338;28;20034;-41
2022/11/04 05:52:37;;;;;;;5.15;2.80;;;;;;;3.83;96.02;100546.31;5028563;28;20160;-40
2022/11/04 05:55:04;;;;;;;8.95;3.45;;;;;;;3.82;96.31;100544.66;5027222;28;20374;-41
2022/11/04 05:57:31;;;;;;;8.15;4.10;;;;;;;3.80;96.31;100546.09;5026651;28;20053;-41
2022/11/04 05:59:57;;;;;;;11.57;5.20;;;;;;;3.77;96.43;100542.03;5023376;28;20495;-42
2022/11/04 06:02:24;;;;;;;10.48;4.68;;;;;;;3.76;96.21;100545.88;5027233;28;22118;-42
2022/11/04 06:04:51;;;;;;;10.95;5.43;;;;;;;3.75;96.44;100548.94;5026442;28;20052;-42
2022/11/04 06:07:17;;;;;;;10.77;5.05;;;;;;;3.73;96.55;100548.44;5022316;28;20092;-41
2022/11/04 06:09:44;;;;;;;14.35;6.85;;;;;;;3.70;96.37;100552.59;5027879;28;20056;-41
2022/11/04 06:12:16;;;;;;;13.23;6.35;;;;;;;3.69;96.26;100561.91;5028120;28;20491;-41
2022/11/04 06:14:43;;;;;;;16.95;6.70;;;;;;;3.69;96.47;100567.38;5026681;28;20133;-41
2022/11/04 06:17:15;;;;;;;14.27;6.40;;;;;;;3.69;96.44;100561.91;5024093;28;20049;-45
2022/11/04 06:19:42;;;;;;;13.90;6.53;;;;;;;3.70;96.87;100558.06;5027124;28;20462;-41
2022/11/04 06:22:11;;;;;;;20.33;7.65;;;;;;;3.70;96.62;100560.81;5027967;28;20050;-41
2022/11/04 06:24:38;;;;;;;15.43;6.78;;;;;;;3.68;96.93;100565.75;5029147;28;20423;-41
2022/11/04 06:27:05;;;;;;;13.93;6.68;;;;;;;3.68;96.82;100561.09;5028260;28;20049;-41
2022/11/04 06:29:32;;;;;;;16.95;8.13;;;;;;;3.66;97.05;100568.81;5023500;28;20046;-41
2022/11/04 06:31:59;;;;;;;15.10;6.72;;;;;;;3.68;97.00;100563.84;5027470;28;20052;-41
2022/11/04 06:34:26;;;;;;;19.95;7.70;;;;;;;3.66;97.34;100557.03;5026613;28;20376;-44
2022/11/04 06:36:52;;;;;;;21.45;6.93;;;;;;;3.66;97.53;100562.50;5022678;28;20064;-41
2022/11/04 06:39:20;;;;;;;15.20;6.95;;;;;;;3.65;97.22;100555.44;5027379;28;20046;-41
2022/11/04 06:41:47;;;;;;;20.70;8.00;;;;;;;3.67;97.69;100556.75;5029662;28;20056;-41
2022/11/04 06:44:17;;;;;;;17.25;7.15;;;;;;;3.70;97.46;100558.06;5032248;28;20041;-45
2022/11/04 06:46:44;;;;;;;16.58;7.85;;;;;;;3.73;97.69;100556.66;5032718;28;20033;-41
2022/11/04 06:49:16;;;;;;;12.48;6.80;;;;;;;3.73;97.74;100552.00;5031119;28;20161;-41
2022/11/04 06:51:43;;;;;;;14.95;6.72;;;;;;;3.75;97.71;100565.38;5028560;28;20057;-41
2022/11/04 06:54:10;;;;;;;17.20;8.27;;;;;;;3.78;97.98;100554.63;5014551;28;20041;-41
2022/11/04 06:56:37;;;;;;;15.27;7.80;;;;;;;3.77;97.82;100563.94;5030158;28;20037;-41
2022/11/04 06:59:04;;;;;;;13.57;7.93;;;;;;;3.76;98.00;100573.25;5027525;28;20063;-41
2022/11/04 07:01:33;;;;;;;11.88;6.88;;;;;;;3.77;98.40;100579.56;5028309;28;20160;-41
2022/11/04 07:04:01;;;;;;;15.95;7.22;;;;;;;3.77;98.21;100582.28;5029137;28;20295;-41
2022/11/04 07:06:28;;;;;;;14.73;6.65;;;;;;;3.79;98.02;100594.56;5030258;28;20045;-40
2022/11/04 07:08:57;;;;;;;13.90;8.05;;;;;;;3.80;98.50;100589.91;5030339;28;20442;-41
2022/11/04 07:11:26;;;;;;;17.00;8.18;;;;;;;3.79;98.32;100594.56;5030411;28;20041;-41
2022/11/04 07:13:53;;;;;;;19.00;7.88;;;;;;;3.80;98.51;100615.38;5029432;28;20395;-41
2022/11/04 07:16:20;;;;;;;16.48;9.20;;;;;;;3.82;98.71;100620.53;5029038;28;20054;-40
2022/11/04 07:18:48;;;;;;;17.33;7.97;;;;;;;3.83;98.79;100617.50;5028596;28;20052;-41
2022/11/04 07:21:15;;;;;;;18.73;8.00;;;;;;;3.86;98.69;100613.34;5028482;28;20045;-42
2022/11/04 07:23:42;;;;;;;20.05;9.00;;;;;;;3.88;98.71;100617.41;5032891;28;20084;-41
2022/11/04 07:26:11;;;;;;;21.70;7.82;;;;;;;3.89;98.71;100615.47;5026755;28;20042;-41
2022/11/04 07:28:39;;;;;;;18.95;8.55;;;;;;;3.90;98.91;100620.63;5021758;28;20045;-40
2022/11/04 07:31:07;;;;;;;16.33;7.93;;;;;;;3.91;99.22;100619.53;5030175;28;20068;-41
2022/11/04 07:33:34;;;;;;;14.82;8.15;;;;;;;3.93;98.97;100628.25;5029545;28;20051;-41
2022/11/04 07:36:06;;;;;;;16.92;7.72;;;;;;;3.92;99.09;100628.56;5028785;28;20053;-42
2022/11/04 07:38:32;;;;;;;21.30;9.23;;;;;;;3.93;99.51;100641.13;5027789;28;20049;-40
2022/11/04 07:41:01;;;;;;;15.30;9.35;;;;;;;3.93;99.40;100639.19;5031699;28;20050;-41
2022/11/04 07:43:29;;;;;;;18.85;8.40;;;;;;;3.94;99.71;100646.31;5029526;28;20406;-41
2022/11/04 07:46:00;;;;;;;21.30;9.23;;;;;;;3.97;99.67;100645.69;5030375;28;20038;-41
2022/11/04 07:48:27;;;;;;;20.60;9.00;;;;;;;3.99;99.39;100648.13;5031413;28;20092;-41
2022/11/04 07:50:58;;;;;;;19.70;8.80;;;;;;;4.00;99.64;100644.25;5031075;28;20053;-41
2022/11/04 07:53:29;;;;;;;21.02;10.45;;;;;;;4.01;99.46;100646.72;5030466;28;20052;-44
2022/11/04 07:55:56;;;;;;;23.00;9.18;;;;;;;4.01;99.56;100652.19;5030809;28;20144;-41
2022/11/04 07:58:25;;;;;;;17.88;8.65;;;;;;;4.02;100.00;100659.31;5030499;28;20499;-45
2022/11/04 08:01:01;;;;;;;15.68;7.70;;;;;;;4.04;99.89;100657.06;5028540;28;20053;-41
2022/11/04 08:03:27;;;;;;;19.42;8.07;;;;;;;4.06;99.79;100665.78;5031017;28;20398;-47
2022/11/04 08:05:59;;;;;;;15.27;8.45;;;;;;;4.08;99.97;100662.72;5013316;28;20048;-41
2022/11/04 08:08:26;;;;;;;14.65;6.97;;;;;;;4.11;100.00;100673.91;5017134;28;20050;-41
2022/11/04 08:11:02;;;;;;;16.05;7.43;;;;;;;4.13;100.00;100660.69;5018971;28;20053;-41
2022/11/04 08:13:31;;;;;;;14.13;7.68;;;;;;;4.15;99.91;100669.44;5020002;28;20755;-41
2022/11/04 08:16:02;;;;;;;13.20;7.25;;;;;;;4.18;100.00;100690.75;5027894;28;20049;-41
2022/11/04 08:18:32;;;;;;;13.13;6.80;;;;;;;4.23;100.00;100698.88;5022655;28;20056;-42
2022/11/04 08:21:01;;;;;;;17.58;7.47;;;;;;;4.32;100.00;100693.47;5029940;28;20038;-43
2022/11/04 08:23:29;;;;;;;13.85;6.03;;;;;;;4.44;100.00;100706.69;5025052;28;20612;-47
2022/11/04 08:25:55;;;;;;;11.60;5.30;;;;;;;4.54;100.00;100711.97;5022931;28;20446;-41
2022/11/04 08:28:23;;;;;;;9.38;5.60;;;;;;;4.62;100.00;100717.53;5027136;28;20187;-41
2022/11/04 08:30:57;;;;;;;9.70;5.55;;;;;;;4.71;100.00;100698.44;5024442;28;20061;-42
2022/11/04 08:33:26;;;;;;;8.60;5.30;;;;;;;4.77;99.77;100699.94;5009067;28;20128;-43
2022/11/04 08:35:54;;;;;;;8.77;4.75;;;;;;;4.82;100.00;100705.31;5022587;28;20096;-41
2022/11/04 08:38:21;;;;;;;7.38;4.88;;;;;;;4.84;99.99;100714.84;5022826;28;20049;-47
2022/11/04 08:40:48;;;;;;;8.85;4.53;;;;;;;4.84;100.00;100722.28;5026757;28;20111;-42
2022/11/04 08:43:15;;;;;;;8.07;4.55;;;;;;;4.85;100.00;100735.69;5028541;28;20406;-42
2022/11/04 08:45:44;;;;;;;9.55;5.60;;;;;;;4.84;99.97;100742.28;5027189;28;20483;-41
2022/11/04 08:48:13;;;;;;;10.60;4.43;;;;;;;4.82;100.00;100743.69;5026212;28;20048;-46
2022/11/04 08:50:39;;;;;;;6.57;3.55;;;;;;;4.81;100.00;100731.94;5021445;28;20083;-41
2022/11/04 08:53:06;;;;;;;6.85;4.38;;;;;;;4.79;99.96;100736.13;5024104;28;20765;-41
2022/11/04 08:55:34;;;;;;;8.25;3.05;;;;;;;4.79;100.00;100727.88;5028495;28;20403;-47
2022/11/04 08:58:01;;;;;;;5.88;3.35;;;;;;;4.81;100.00;100731.13;5024998;28;20052;-41
2022/11/04 09:00:31;;;;;;;7.93;3.50;;;;;;;4.85;100.00;100732.13;5024349;28;20472;-46
2022/11/04 09:02:59;;;;;;;6.70;3.40;;;;;;;4.88;100.00;100731.50;5027571;28;20049;-41
2022/11/04 09:05:25;;;;;;;6.65;3.00;;;;;;;4.91;100.00;100725.41;5030827;28;20045;-44
2022/11/04 09:07:52;;;;;;;9.55;4.05;;;;;;;4.93;100.00;100734.13;5030880;28;20041;-41
2022/11/04 09:10:19;;;;;;;5.22;3.05;;;;;;;4.96;100.00;100739.00;5026591;28;20046;-48
2022/11/04 09:12:45;;;;;;;6.10;2.58;;;;;;;5.00;100.00;100737.28;5009543;28;20061;-46
2022/11/04 09:15:12;;;;;;;4.63;2.80;;;;;;;5.05;100.00;100750.09;5026386;28;20182;-42
2022/11/04 09:17:39;;;;;;;6.38;2.70;;;;;;;5.10;100.00;100748.03;5027504;28;20048;-41
2022/11/04 09:20:06;;;;;;;7.72;3.08;;;;;;;5.14;100.00;100751.78;5028002;28;20056;-47
2022/11/04 09:22:33;;;;;;;5.45;2.47;;;;;;;5.20;100.00;100755.22;5028381;28;20157;-42
2022/11/04 09:25:00;;;;;;;6.90;2.92;;;;;;;5.24;100.00;100765.25;5023033;28;20148;-42
2022/11/04 09:27:26;;;;;;;4.63;1.88;;;;;;;5.29;100.00;100753.38;5029324;28;20045;-43
2022/11/04 09:29:53;;;;;;;10.05;1.85;;;;;;;5.33;100.00;100763.41;5025376;28;20557;-44
2022/11/04 09:32:20;;;;;;;5.00;1.85;;;;;;;5.38;100.00;100760.56;5026521;28;20053;-41
2022/11/04 09:34:46;;;;;;;5.00;2.17;;;;;;;5.43;100.00;100754.94;5024707;28;20054;-41
2022/11/04 09:37:14;;;;;;;2.47;2.20;;;;;;;5.48;100.00;100763.06;5021094;28;20042;-43
2022/11/04 09:39:41;;;;;;;2.13;1.70;;;;;;;5.53;100.00;100765.66;5026008;28;20049;-45
2022/11/04 09:42:30;;;;;;;2.67;1.52;;;;;;;5.60;100.00;100761.69;5027377;28;20473;-41
2022/11/04 09:45:00;;;;;;;7.88;1.35;;;;;;;5.65;100.00;100762.38;5024875;28;20053;-41
2022/11/04 09:47:49;;;;;;;4.43;1.65;;;;;;;5.72;99.90;100768.25;5007074;28;20050;-42
2022/11/04 09:50:26;;;;;;;4.03;1.58;;;;;;;5.79;100.00;100774.13;5021587;28;20055;-41
2022/11/04 09:53:00;;;;;;;3.85;1.38;;;;;;;5.85;99.98;100755.63;5027966;28;20053;-41
2022/11/04 09:55:39;;;;;;;5.65;1.85;;;;;;;5.90;99.84;100752.75;5025167;28;20053;-41
2022/11/04 09:58:11;;;;;;;3.38;1.40;;;;;;;5.96;99.69;100754.22;5027019;28;20049;-41
2022/11/04 10:00:39;;;;;;;5.22;1.42;;;;;;;6.00;99.84;100747.78;5026089;28;20049;-43
2022/11/04 10:03:15;;;;;;;3.35;1.63;;;;;;;6.07;99.69;100748.16;5027667;28;20087;-41
2022/11/04 10:05:59;;;;;;;5.65;1.73;;;;;;;6.15;99.62;100757.56;5022761;28;20049;-46
2022/11/04 10:08:42;;;;;;;4.22;1.67;;;;;;;6.23;99.58;100753.22;5019081;28;20502;-42
2022/11/04 10:11:24;;;;;;;3.63;1.35;;;;;;;6.29;99.56;100750.03;5021448;28;20442;-41
2022/11/04 10:14:15;;;;;;;4.38;1.33;;;;;;;6.40;99.27;100751.38;5010588;28;20052;-42
2022/11/04 10:16:55;;;;;;;4.15;1.38;;;;;;;6.48;99.31;100764.38;5008529;28;20440;-41
2022/11/04 10:19:38;;;;;;;4.38;1.33;;;;;;;6.55;99.00;100764.72;5026511;28;20056;-46
2022/11/04 10:22:34;;;;;;;3.80;1.15;;;;;;;6.62;98.92;100776.03;5024679;28;20403;-42
2022/11/04 10:25:04;;;;;;;3.85;1.13;;;;;;;6.69;98.67;100773.66;5027839;28;20390;-46
2022/11/04 10:27:36;;;;;;;7.60;1.08;;;;;;;6.77;98.58;100785.00;5026117;28;20041;-41
2022/11/04 10:30:12;;;;;;;5.10;1.00;;;;;;;6.79;98.51;100774.50;5026513;28;20404;-41
2022/11/04 10:32:46;;;;;;;2.72;1.67;;;;;;;6.84;98.71;100766.09;5028706;28;20049;-41
2022/11/04 10:35:37;;;;;;;4.20;1.30;;;;;;;6.89;98.36;100765.94;4997882;28;20041;-42
2022/11/04 10:38:18;;;;;;;8.82;1.25;;;;;;;6.95;98.29;100773.72;5022495;28;20045;-42
2022/11/04 10:40:49;;;;;;;6.05;1.40;;;;;;;7.02;98.33;100762.22;5026080;28;20125;-43
2022/11/04 10:43:25;;;;;;;2.33;1.40;;;;;;;7.08;98.08;100766.47;5025707;28;20669;-42
2022/11/04 10:46:15;;;;;;;7.97;1.23;;;;;;;7.16;98.14;100765.66;5018980;28;20053;-42
2022/11/04 10:48:49;;;;;;;5.35;1.67;;;;;;;7.24;98.06;100762.13;5028129;28;20046;-42
2022/11/04 10:51:20;;;;;;;2.55;1.10;;;;;;;7.28;97.74;100774.13;5028245;28;20052;-43
2022/11/04 10:53:55;;;;;;;3.80;0.93;;;;;;;7.32;97.49;100777.84;5027821;28;20045;-44
2022/11/04 10:56:41;;;;;;;2.78;1.00;;;;;;;7.40;97.33;100777.03;5024837;28;20045;-42
2022/11/04 10:59:31;;;;;;;2.13;1.25;;;;;;;7.49;97.13;100793.56;5020791;28;20049;-42
2022/11/04 11:02:01;;;;;;;3.90;0.90;;;;;;;7.57;97.00;100798.28;5027655;28;20053;-42
2022/11/04 11:04:34;;;;;;;7.43;0.90;;;;;;;7.63;96.83;100785.94;5025353;28;20055;-41
2022/11/04 11:07:06;;;;;;;;;;;;;;;7.68;96.61;100786.59;5021662;28;20044;-42
2022/11/04 11:09:41;;;;;;;2.25;0.90;;;;;;;7.72;96.07;100782.06;5021529;28;19921;-42
2022/11/04 11:12:11;;;;;;;7.75;1.45;;;;;;;7.77;96.13;100779.16;5013138;28;20049;-42
2022/11/04 11:14:57;;;;;;;1.42;0.70;;;;;;;7.81;95.91;100780.09;5021482;28;20128;-42
2022/11/04 11:17:37;;;;;;;2.03;0.98;;;;;;;7.85;95.90;100775.56;5024420;28;20056;-42
2022/11/04 11:20:20;;;;;;;2.25;0.70;;;;;;;7.92;95.87;100791.59;5020177;28;20041;-42
2022/11/04 11:22:50;;;;;;;4.32;1.50;;;;;;;7.95;95.59;100780.72;5031503;28;20236;-42
2022/11/04 11:25:20;;;;;;;3.47;1.08;;;;;;;8.01;95.38;100778.63;5024936;28;20042;-42
2022/11/04 11:28:02;;;;;;;3.42;0.88;;;;;;;8.08;95.17;100767.91;5025601;28;20053;-46
2022/11/04 11:30:45;;;;;;;5.05;2.35;;;;;;;8.13;94.78;100769.69;5029965;28;20395;-42
2022/11/04 11:33:32;;;;;;;3.13;0.95;;;;;;;8.17;94.80;100771.44;5031538;28;20072;-41
2022/11/04 11:36:13;;;;;;;3.35;0.88;;;;;;;8.21;94.41;100771.59;5018005;28;20049;-42
2022/11/04 11:39:02;;;;;;;4.35;1.42;;;;;;;8.25;94.40;100776.13;5023956;28;20041;-42
2022/11/04 11:41:32;;;;;;;2.28;0.93;;;;;;;8.28;94.24;100783.78;5026249;28;20037;-42
2022/11/04 11:44:06;;;;;;;3.97;1.00;;;;;;;8.31;93.97;100783.09;5021683;28;20152;-42
2022/11/04 11:46:36;;;;;;;5.00;1.13;;;;;;;8.32;93.65;100770.94;5030245;28;20450;-42
2022/11/04 11:49:04;;;;;;;5.72;1.02;;;;;;;8.34;93.53;100781.66;5026658;28;20041;-42
2022/11/04 11:51:35;;;;;;;1.90;0.80;;;;;;;8.38;93.45;100782.63;5031606;28;20077;-42
2022/11/04 11:54:32;;;;;;;8.88;0.90;;;;;;;8.40;93.07;100783.91;5028795;28;20052;-42
2022/11/04 11:57:04;;;;;;;3.60;1.00;;;;;;;8.40;92.59;100791.38;5025800;28;20046;-42
2022/11/04 11:59:51;;;;;;;4.60;1.20;;;;;;;8.44;92.72;100787.63;4999888;28;20053;-42
2022/11/04 12:02:53;;;;;;;5.55;1.83;;;;;;;8.49;92.54;100778.34;5027312;28;20638;-42
2022/11/04 12:05:29;;;;;;;2.20;0.90;;;;;;;8.55;92.47;100788.09;5022787;28;20135;-47
2022/11/04 12:08:41;;;;;;;2.88;1.38;;;;;;;8.64;92.41;100779.75;5027194;28;20099;-41
2022/11/04 12:11:35;;;;;;;6.85;1.08;;;;;;;8.74;92.28;100785.72;5025032;28;20050;-41
2022/11/04 12:14:15;;;;;;;7.53;1.15;;;;;;;8.86;92.06;100782.25;5028247;28;20045;-42
2022/11/04 12:17:06;;;;;;;6.22;0.90;;;;;;;8.93;91.98;100777.81;5026672;28;20510;-42
2022/11/04 12:19:42;;;;;;;2.80;0.73;;;;;;;9.00;91.42;100789.13;5020839;28;20045;-45
2022/11/04 12:22:26;;;;;;;5.35;1.00;;;;;;;9.05;91.50;100779.88;5026972;28;20079;-42